sensor_id;sensor_type;location;lat;lon;timestamp;temperature;humidity
56478;DHT22;42382;53.210;5.772;2022-12-05T01:26:55;3.10;88.00
56478;DHT22;42382;53.210;5.772;2022-12-05T01:29:22;5.20;90.30
56478;DHT22;42382;53.210;5.772;2022-12-05T01:31:48;5.20;90.20
56478;DHT22;42382;53.210;5.772;2022-12-05T01:34:15;5.20;90.30
56478;DHT22;42382;53.210;5.772;2022-12-05T01:36:41;5.20;90.40
56478;DHT22;42382;53.210;5.772;2022-12-05T01:39:08;5.20;90.50
56478;DHT22;42382;53.210;5.772;2022-12-05T01:41:37;5.30;90.50
56478;DHT22;42382;53.210;5.772;2022-12-05T01:46:36;5.20;90.60
56478;DHT22;42382;53.210;5.772;2022-12-05T01:49:19;5.30;90.70
56478;DHT22;42382;53.210;5.772;2022-12-05T01:51:49;5.20;90.90
56478;DHT22;42382;53.210;5.772;2022-12-05T01:54:17;5.30;90.70
56478;DHT22;42382;53.210;5.772;2022-12-05T01:56:49;5.30;90.80
56478;DHT22;42382;53.210;5.772;2022-12-05T01:59:15;5.30;90.90
56478;DHT22;42382;53.210;5.772;2022-12-05T02:01:43;5.30;91.10
56478;DHT22;42382;53.210;5.772;2022-12-05T02:04:12;5.40;91.10
56478;DHT22;42382;53.210;5.772;2022-12-05T02:06:38;5.40;91.20
56478;DHT22;42382;53.210;5.772;2022-12-05T02:09:03;5.30;91.10
56478;DHT22;42382;53.210;5.772;2022-12-05T02:11:30;5.30;91.20
56478;DHT22;42382;53.210;5.772;2022-12-05T02:22:46;5.40;91.60
56478;DHT22;42382;53.210;5.772;2022-12-05T02:25:30;5.40;91.70
56478;DHT22;42382;53.210;5.772;2022-12-05T02:28:19;5.40;91.60
56478;DHT22;42382;53.210;5.772;2022-12-05T02:30:59;5.40;91.50
56478;DHT22;42382;53.210;5.772;2022-12-05T02:39:03;5.50;91.40
56478;DHT22;42382;53.210;5.772;2022-12-05T02:41:35;5.50;91.40
56478;DHT22;42382;53.210;5.772;2022-12-05T02:44:29;5.50;91.40
56478;DHT22;42382;53.210;5.772;2022-12-05T02:46:58;5.50;91.30
56478;DHT22;42382;53.210;5.772;2022-12-05T02:49:29;5.50;91.20
56478;DHT22;42382;53.210;5.772;2022-12-05T02:51:58;5.50;91.20
56478;DHT22;42382;53.210;5.772;2022-12-05T02:54:32;5.60;91.20
56478;DHT22;42382;53.210;5.772;2022-12-05T02:57:00;5.60;91.20
56478;DHT22;42382;53.210;5.772;2022-12-05T02:59:26;5.60;91.10
56478;DHT22;42382;53.210;5.772;2022-12-05T03:01:51;5.60;91.00
56478;DHT22;42382;53.210;5.772;2022-12-05T03:04:20;5.60;91.00
56478;DHT22;42382;53.210;5.772;2022-12-05T03:06:57;5.60;90.90
56478;DHT22;42382;53.210;5.772;2022-12-05T03:09:34;5.60;91.00
56478;DHT22;42382;53.210;5.772;2022-12-05T03:12:09;5.60;91.00
56478;DHT22;42382;53.210;5.772;2022-12-05T03:14:56;5.70;90.90
56478;DHT22;42382;53.210;5.772;2022-12-05T03:17:25;5.70;90.90
56478;DHT22;42382;53.210;5.772;2022-12-05T03:22:37;5.70;90.90
56478;DHT22;42382;53.210;5.772;2022-12-05T03:25:06;5.70;90.90
56478;DHT22;42382;53.210;5.772;2022-12-05T03:27:42;5.70;90.90
56478;DHT22;42382;53.210;5.772;2022-12-05T03:30:13;5.60;91.00
56478;DHT22;42382;53.210;5.772;2022-12-05T03:33:05;5.70;91.00
56478;DHT22;42382;53.210;5.772;2022-12-05T03:35:58;5.60;91.00
56478;DHT22;42382;53.210;5.772;2022-12-05T03:38:32;5.70;91.10
56478;DHT22;42382;53.210;5.772;2022-12-05T03:41:12;5.60;91.20
56478;DHT22;42382;53.210;5.772;2022-12-05T03:46:17;5.60;91.20
56478;DHT22;42382;53.210;5.772;2022-12-05T03:51:39;5.70;91.20
56478;DHT22;42382;53.210;5.772;2022-12-05T03:54:12;5.70;91.30
56478;DHT22;42382;53.210;5.772;2022-12-05T03:56:46;5.70;91.40
56478;DHT22;42382;53.210;5.772;2022-12-05T04:01:47;5.70;91.50
56478;DHT22;42382;53.210;5.772;2022-12-05T04:04:18;5.70;91.50
56478;DHT22;42382;53.210;5.772;2022-12-05T04:06:46;5.70;91.50
56478;DHT22;42382;53.210;5.772;2022-12-05T04:09:27;5.70;91.40
56478;DHT22;42382;53.210;5.772;2022-12-05T04:12:02;5.70;91.50
56478;DHT22;42382;53.210;5.772;2022-12-05T04:14:34;5.70;91.50
56478;DHT22;42382;53.210;5.772;2022-12-05T04:17:26;5.70;91.50
56478;DHT22;42382;53.210;5.772;2022-12-05T04:20:03;5.70;91.50
56478;DHT22;42382;53.210;5.772;2022-12-05T04:22:49;5.80;91.50
56478;DHT22;42382;53.210;5.772;2022-12-05T04:25:16;5.80;91.50
56478;DHT22;42382;53.210;5.772;2022-12-05T04:28:05;5.70;91.50
56478;DHT22;42382;53.210;5.772;2022-12-05T04:33:16;5.70;91.60
56478;DHT22;42382;53.210;5.772;2022-12-05T04:35:51;5.70;91.50
56478;DHT22;42382;53.210;5.772;2022-12-05T04:38:27;5.70;91.60
56478;DHT22;42382;53.210;5.772;2022-12-05T04:40:59;5.70;91.60
56478;DHT22;42382;53.210;5.772;2022-12-05T04:43:28;5.70;91.60
56478;DHT22;42382;53.210;5.772;2022-12-05T04:45:57;5.70;91.70
56478;DHT22;42382;53.210;5.772;2022-12-05T04:48:25;5.70;91.60
56478;DHT22;42382;53.210;5.772;2022-12-05T04:50:53;5.70;91.70
56478;DHT22;42382;53.210;5.772;2022-12-05T04:53:22;5.70;91.60
56478;DHT22;42382;53.210;5.772;2022-12-05T04:55:50;5.70;91.80
56478;DHT22;42382;53.210;5.772;2022-12-05T04:58:17;5.70;91.80
56478;DHT22;42382;53.210;5.772;2022-12-05T05:03:49;5.70;91.80
56478;DHT22;42382;53.210;5.772;2022-12-05T05:06:16;5.70;91.80
56478;DHT22;42382;53.210;5.772;2022-12-05T05:08:50;5.80;92.00
56478;DHT22;42382;53.210;5.772;2022-12-05T05:11:26;5.70;91.90
56478;DHT22;42382;53.210;5.772;2022-12-05T05:13:52;5.70;92.00
56478;DHT22;42382;53.210;5.772;2022-12-05T05:16:27;5.70;91.80
56478;DHT22;42382;53.210;5.772;2022-12-05T05:18:53;5.70;91.90
56478;DHT22;42382;53.210;5.772;2022-12-05T05:21:33;5.70;91.90
56478;DHT22;42382;53.210;5.772;2022-12-05T05:24:00;5.80;91.90
56478;DHT22;42382;53.210;5.772;2022-12-05T05:26:27;5.80;91.90
56478;DHT22;42382;53.210;5.772;2022-12-05T05:28:53;5.70;91.90
56478;DHT22;42382;53.210;5.772;2022-12-05T05:31:20;5.80;91.90
56478;DHT22;42382;53.210;5.772;2022-12-05T05:33:53;5.80;91.90
56478;DHT22;42382;53.210;5.772;2022-12-05T05:36:20;5.80;91.90
56478;DHT22;42382;53.210;5.772;2022-12-05T05:38:48;5.80;91.90
56478;DHT22;42382;53.210;5.772;2022-12-05T05:41:20;5.80;92.00
56478;DHT22;42382;53.210;5.772;2022-12-05T05:43:46;5.80;91.90
56478;DHT22;42382;53.210;5.772;2022-12-05T05:46:13;5.80;91.90
56478;DHT22;42382;53.210;5.772;2022-12-05T05:48:40;5.80;91.80
56478;DHT22;42382;53.210;5.772;2022-12-05T05:51:07;5.90;91.90
56478;DHT22;42382;53.210;5.772;2022-12-05T05:53:33;5.80;91.90
56478;DHT22;42382;53.210;5.772;2022-12-05T05:56:06;5.90;92.00
56478;DHT22;42382;53.210;5.772;2022-12-05T05:58:33;5.90;92.00
56478;DHT22;42382;53.210;5.772;2022-12-05T06:03:28;5.80;92.10
56478;DHT22;42382;53.210;5.772;2022-12-05T06:06:04;5.90;92.10
56478;DHT22;42382;53.210;5.772;2022-12-05T06:08:31;5.80;92.10
56478;DHT22;42382;53.210;5.772;2022-12-05T06:10:57;5.90;92.30
56478;DHT22;42382;53.210;5.772;2022-12-05T06:13:23;5.80;92.20
56478;DHT22;42382;53.210;5.772;2022-12-05T06:15:48;5.90;92.20
56478;DHT22;42382;53.210;5.772;2022-12-05T06:18:14;5.90;92.20
56478;DHT22;42382;53.210;5.772;2022-12-05T06:20:40;5.90;92.10
56478;DHT22;42382;53.210;5.772;2022-12-05T06:23:05;5.80;92.10
56478;DHT22;42382;53.210;5.772;2022-12-05T06:25:31;5.90;92.20
56478;DHT22;42382;53.210;5.772;2022-12-05T06:27:56;5.90;92.30
56478;DHT22;42382;53.210;5.772;2022-12-05T06:30:22;5.90;92.30
56478;DHT22;42382;53.210;5.772;2022-12-05T06:32:47;5.90;92.20
56478;DHT22;42382;53.210;5.772;2022-12-05T06:35:13;5.90;92.20
56478;DHT22;42382;53.210;5.772;2022-12-05T06:37:42;5.90;92.20
56478;DHT22;42382;53.210;5.772;2022-12-05T06:40:09;5.90;92.30
56478;DHT22;42382;53.210;5.772;2022-12-05T06:42:35;5.90;92.30
56478;DHT22;42382;53.210;5.772;2022-12-05T06:45:01;5.90;92.40
56478;DHT22;42382;53.210;5.772;2022-12-05T06:47:26;5.80;92.40
56478;DHT22;42382;53.210;5.772;2022-12-05T06:49:52;5.80;92.30
56478;DHT22;42382;53.210;5.772;2022-12-05T06:52:17;5.80;92.40
56478;DHT22;42382;53.210;5.772;2022-12-05T06:54:43;5.90;92.40
56478;DHT22;42382;53.210;5.772;2022-12-05T06:57:08;5.90;92.40
56478;DHT22;42382;53.210;5.772;2022-12-05T06:59:34;5.90;92.40
56478;DHT22;42382;53.210;5.772;2022-12-05T07:02:00;5.90;92.40
56478;DHT22;42382;53.210;5.772;2022-12-05T07:04:25;5.90;92.50
56478;DHT22;42382;53.210;5.772;2022-12-05T07:06:53;5.80;92.60
56478;DHT22;42382;53.210;5.772;2022-12-05T07:09:23;5.80;92.50
56478;DHT22;42382;53.210;5.772;2022-12-05T07:12:09;5.80;92.50
56478;DHT22;42382;53.210;5.772;2022-12-05T07:14:35;5.80;92.50
56478;DHT22;42382;53.210;5.772;2022-12-05T07:17:01;5.80;92.60
56478;DHT22;42382;53.210;5.772;2022-12-05T07:19:26;5.80;92.60
56478;DHT22;42382;53.210;5.772;2022-12-05T07:21:52;5.80;92.60
56478;DHT22;42382;53.210;5.772;2022-12-05T07:24:17;5.80;92.60
56478;DHT22;42382;53.210;5.772;2022-12-05T07:26:43;5.80;92.80
56478;DHT22;42382;53.210;5.772;2022-12-05T07:29:09;5.80;92.80
56478;DHT22;42382;53.210;5.772;2022-12-05T07:31:35;5.80;92.90
56478;DHT22;42382;53.210;5.772;2022-12-05T07:34:01;5.80;92.90
56478;DHT22;42382;53.210;5.772;2022-12-05T07:36:27;5.80;92.80
56478;DHT22;42382;53.210;5.772;2022-12-05T07:38:57;5.80;92.80
56478;DHT22;42382;53.210;5.772;2022-12-05T07:43:53;5.90;92.90
56478;DHT22;42382;53.210;5.772;2022-12-05T07:46:19;5.90;92.90
56478;DHT22;42382;53.210;5.772;2022-12-05T07:48:46;5.90;93.00
56478;DHT22;42382;53.210;5.772;2022-12-05T07:51:12;5.90;93.00
56478;DHT22;42382;53.210;5.772;2022-12-05T07:53:40;5.90;93.10
56478;DHT22;42382;53.210;5.772;2022-12-05T07:56:10;5.80;93.00
56478;DHT22;42382;53.210;5.772;2022-12-05T07:58:38;5.80;93.10
56478;DHT22;42382;53.210;5.772;2022-12-05T08:01:13;5.80;93.00
56478;DHT22;42382;53.210;5.772;2022-12-05T08:03:40;5.90;93.00
56478;DHT22;42382;53.210;5.772;2022-12-05T08:06:12;5.90;93.00
56478;DHT22;42382;53.210;5.772;2022-12-05T08:08:39;5.90;92.90
56478;DHT22;42382;53.210;5.772;2022-12-05T08:11:09;5.90;92.90
56478;DHT22;42382;53.210;5.772;2022-12-05T08:13:36;5.90;92.90
56478;DHT22;42382;53.210;5.772;2022-12-05T08:16:08;5.90;92.80
56478;DHT22;42382;53.210;5.772;2022-12-05T08:18:34;5.90;92.80
56478;DHT22;42382;53.210;5.772;2022-12-05T08:21:05;6.00;92.90
56478;DHT22;42382;53.210;5.772;2022-12-05T08:23:31;6.00;92.60
56478;DHT22;42382;53.210;5.772;2022-12-05T08:26:02;6.00;92.70
56478;DHT22;42382;53.210;5.772;2022-12-05T08:28:29;6.00;92.70
56478;DHT22;42382;53.210;5.772;2022-12-05T08:30:54;6.00;92.60
56478;DHT22;42382;53.210;5.772;2022-12-05T08:33:20;6.10;92.60
56478;DHT22;42382;53.210;5.772;2022-12-05T08:35:45;6.10;92.50
56478;DHT22;42382;53.210;5.772;2022-12-05T08:38:11;6.10;92.60
56478;DHT22;42382;53.210;5.772;2022-12-05T08:40:36;6.10;92.50
56478;DHT22;42382;53.210;5.772;2022-12-05T08:43:02;6.10;92.40
56478;DHT22;42382;53.210;5.772;2022-12-05T08:45:28;6.10;92.30
56478;DHT22;42382;53.210;5.772;2022-12-05T08:47:54;6.10;92.30
56478;DHT22;42382;53.210;5.772;2022-12-05T08:50:19;6.10;92.30
56478;DHT22;42382;53.210;5.772;2022-12-05T08:52:45;6.10;92.30
56478;DHT22;42382;53.210;5.772;2022-12-05T08:55:10;6.10;92.30
56478;DHT22;42382;53.210;5.772;2022-12-05T08:57:37;6.10;92.30
56478;DHT22;42382;53.210;5.772;2022-12-05T09:00:03;6.10;92.30
56478;DHT22;42382;53.210;5.772;2022-12-05T09:02:30;6.10;92.20
56478;DHT22;42382;53.210;5.772;2022-12-05T09:04:55;6.10;92.20
56478;DHT22;42382;53.210;5.772;2022-12-05T09:07:21;6.10;92.20
56478;DHT22;42382;53.210;5.772;2022-12-05T09:09:47;6.10;92.20
56478;DHT22;42382;53.210;5.772;2022-12-05T09:12:12;6.10;92.20
56478;DHT22;42382;53.210;5.772;2022-12-05T09:14:39;6.10;92.10
56478;DHT22;42382;53.210;5.772;2022-12-05T09:17:04;6.20;92.20
56478;DHT22;42382;53.210;5.772;2022-12-05T09:19:31;6.20;92.20
56478;DHT22;42382;53.210;5.772;2022-12-05T09:21:57;6.20;92.10
56478;DHT22;42382;53.210;5.772;2022-12-05T09:24:23;6.20;92.10
56478;DHT22;42382;53.210;5.772;2022-12-05T09:26:48;6.20;92.10
56478;DHT22;42382;53.210;5.772;2022-12-05T09:29:14;6.20;92.10
56478;DHT22;42382;53.210;5.772;2022-12-05T09:31:40;6.30;92.10
56478;DHT22;42382;53.210;5.772;2022-12-05T09:34:07;6.30;92.00
56478;DHT22;42382;53.210;5.772;2022-12-05T09:36:34;6.30;91.80
56478;DHT22;42382;53.210;5.772;2022-12-05T09:39:02;6.30;91.90
56478;DHT22;42382;53.210;5.772;2022-12-05T09:41:52;6.30;91.90
56478;DHT22;42382;53.210;5.772;2022-12-05T09:55:19;6.20;91.60
56478;DHT22;42382;53.210;5.772;2022-12-05T09:58:17;6.30;91.50
56478;DHT22;42382;53.210;5.772;2022-12-05T10:00:43;6.20;91.40
56478;DHT22;42382;53.210;5.772;2022-12-05T10:03:28;6.30;91.40
56478;DHT22;42382;53.210;5.772;2022-12-05T10:06:12;6.30;91.30
56478;DHT22;42382;53.210;5.772;2022-12-05T10:16:59;6.30;91.20
56478;DHT22;42382;53.210;5.772;2022-12-05T10:19:37;6.40;91.10
56478;DHT22;42382;53.210;5.772;2022-12-05T10:22:12;6.40;91.20
56478;DHT22;42382;53.210;5.772;2022-12-05T10:24:45;6.40;91.20
56478;DHT22;42382;53.210;5.772;2022-12-05T10:27:18;6.50;91.20
56478;DHT22;42382;53.210;5.772;2022-12-05T10:29:57;6.40;90.90
56478;DHT22;42382;53.210;5.772;2022-12-05T10:32:52;6.40;91.00
56478;DHT22;42382;53.210;5.772;2022-12-05T10:35:33;6.40;91.00
56478;DHT22;42382;53.210;5.772;2022-12-05T10:38:03;6.40;91.00
56478;DHT22;42382;53.210;5.772;2022-12-05T10:40:43;6.40;91.20
56478;DHT22;42382;53.210;5.772;2022-12-05T10:43:12;6.40;91.20
56478;DHT22;42382;53.210;5.772;2022-12-05T10:45:43;6.40;91.30
56478;DHT22;42382;53.210;5.772;2022-12-05T10:48:15;6.40;91.30
56478;DHT22;42382;53.210;5.772;2022-12-05T10:50:43;6.40;91.40
56478;DHT22;42382;53.210;5.772;2022-12-05T10:53:17;6.50;91.40
56478;DHT22;42382;53.210;5.772;2022-12-05T10:55:45;6.50;91.40
56478;DHT22;42382;53.210;5.772;2022-12-05T10:58:14;6.50;91.30
56478;DHT22;42382;53.210;5.772;2022-12-05T11:00:42;6.50;91.30
56478;DHT22;42382;53.210;5.772;2022-12-05T11:05:58;6.50;91.30
56478;DHT22;42382;53.210;5.772;2022-12-05T11:08:30;6.50;91.30
56478;DHT22;42382;53.210;5.772;2022-12-05T11:11:05;6.50;91.40
56478;DHT22;42382;53.210;5.772;2022-12-05T11:13:32;6.60;91.10
56478;DHT22;42382;53.210;5.772;2022-12-05T11:15:58;6.60;91.00
56478;DHT22;42382;53.210;5.772;2022-12-05T11:18:28;6.60;90.90
56478;DHT22;42382;53.210;5.772;2022-12-05T11:20:55;6.60;91.00
56478;DHT22;42382;53.210;5.772;2022-12-05T11:23:26;6.60;91.00
56478;DHT22;42382;53.210;5.772;2022-12-05T11:25:52;6.60;90.80
56478;DHT22;42382;53.210;5.772;2022-12-05T11:30:57;6.60;90.90
56478;DHT22;42382;53.210;5.772;2022-12-05T11:33:25;6.60;90.90
56478;DHT22;42382;53.210;5.772;2022-12-05T11:35:53;6.60;90.90
56478;DHT22;42382;53.210;5.772;2022-12-05T11:38:23;6.60;90.80
56478;DHT22;42382;53.210;5.772;2022-12-05T11:44:10;6.60;91.10
56478;DHT22;42382;53.210;5.772;2022-12-05T11:46:47;6.60;90.90
56478;DHT22;42382;53.210;5.772;2022-12-05T11:54:54;6.50;91.20
56478;DHT22;42382;53.210;5.772;2022-12-05T11:57:24;6.50;91.20
56478;DHT22;42382;53.210;5.772;2022-12-05T12:19:23;6.40;92.20
56478;DHT22;42382;53.210;5.772;2022-12-05T12:30:11;6.40;92.30
56478;DHT22;42382;53.210;5.772;2022-12-05T12:35:46;6.40;92.40
56478;DHT22;42382;53.210;5.772;2022-12-05T12:38:27;6.30;92.50
56478;DHT22;42382;53.210;5.772;2022-12-05T12:46:37;6.30;92.70
56478;DHT22;42382;53.210;5.772;2022-12-05T12:49:15;6.30;92.60
56478;DHT22;42382;53.210;5.772;2022-12-05T12:51:53;6.30;92.80
56478;DHT22;42382;53.210;5.772;2022-12-05T13:00:08;6.20;92.90
56478;DHT22;42382;53.210;5.772;2022-12-05T13:02:43;6.30;93.10
56478;DHT22;42382;53.210;5.772;2022-12-05T13:08:14;6.20;93.10
56478;DHT22;42382;53.210;5.772;2022-12-05T13:10:45;6.30;93.10
56478;DHT22;42382;53.210;5.772;2022-12-05T13:13:21;6.20;93.10
56478;DHT22;42382;53.210;5.772;2022-12-05T13:15:53;6.20;93.10
56478;DHT22;42382;53.210;5.772;2022-12-05T13:18:22;6.20;93.30
56478;DHT22;42382;53.210;5.772;2022-12-05T13:20:51;6.20;93.20
56478;DHT22;42382;53.210;5.772;2022-12-05T13:23:21;6.20;93.40
56478;DHT22;42382;53.210;5.772;2022-12-05T13:25:49;6.20;93.40
56478;DHT22;42382;53.210;5.772;2022-12-05T13:30:49;6.20;93.30
56478;DHT22;42382;53.210;5.772;2022-12-05T13:33:34;6.20;93.50
56478;DHT22;42382;53.210;5.772;2022-12-05T13:36:11;6.10;93.40
56478;DHT22;42382;53.210;5.772;2022-12-05T13:39:14;6.20;93.60
56478;DHT22;42382;53.210;5.772;2022-12-05T13:41:59;6.20;93.50
56478;DHT22;42382;53.210;5.772;2022-12-05T13:44:51;6.10;93.40
56478;DHT22;42382;53.210;5.772;2022-12-05T13:47:46;6.20;93.60
56478;DHT22;42382;53.210;5.772;2022-12-05T13:50:38;6.20;93.50
56478;DHT22;42382;53.210;5.772;2022-12-05T13:53:28;6.20;93.60
56478;DHT22;42382;53.210;5.772;2022-12-05T13:55:59;6.20;93.60
56478;DHT22;42382;53.210;5.772;2022-12-05T14:15:00;6.10;93.70
56478;DHT22;42382;53.210;5.772;2022-12-05T14:17:31;6.10;93.80
56478;DHT22;42382;53.210;5.772;2022-12-05T14:23:13;6.10;93.80
56478;DHT22;42382;53.210;5.772;2022-12-05T14:26:06;6.10;93.80
56478;DHT22;42382;53.210;5.772;2022-12-05T14:34:30;6.10;93.80
56478;DHT22;42382;53.210;5.772;2022-12-05T14:39:51;6.10;94.00
56478;DHT22;42382;53.210;5.772;2022-12-05T14:42:40;6.10;93.80
56478;DHT22;42382;53.210;5.772;2022-12-05T14:47:55;6.00;94.00
56478;DHT22;42382;53.210;5.772;2022-12-05T14:50:31;6.10;94.00
56478;DHT22;42382;53.210;5.772;2022-12-05T14:53:31;6.10;93.80
56478;DHT22;42382;53.210;5.772;2022-12-05T14:56:09;6.10;93.80
56478;DHT22;42382;53.210;5.772;2022-12-05T14:58:43;6.10;93.90
56478;DHT22;42382;53.210;5.772;2022-12-05T15:01:16;6.10;94.00
56478;DHT22;42382;53.210;5.772;2022-12-05T15:09:57;6.10;94.10
56478;DHT22;42382;53.210;5.772;2022-12-05T15:12:40;6.00;94.10
56478;DHT22;42382;53.210;5.772;2022-12-05T15:21:09;6.00;94.00
56478;DHT22;42382;53.210;5.772;2022-12-05T15:26:24;6.00;94.10
56478;DHT22;42382;53.210;5.772;2022-12-05T15:31:27;6.10;94.10
56478;DHT22;42382;53.210;5.772;2022-12-05T15:33:57;6.00;94.10
56478;DHT22;42382;53.210;5.772;2022-12-05T15:36:28;6.00;94.10
56478;DHT22;42382;53.210;5.772;2022-12-05T15:38:57;6.00;94.20
56478;DHT22;42382;53.210;5.772;2022-12-05T15:41:26;6.10;94.30
56478;DHT22;42382;53.210;5.772;2022-12-05T15:43:57;6.00;94.10
56478;DHT22;42382;53.210;5.772;2022-12-05T15:46:26;6.10;94.10
56478;DHT22;42382;53.210;5.772;2022-12-05T15:48:57;6.00;94.10
56478;DHT22;42382;53.210;5.772;2022-12-05T15:51:35;6.00;94.10
56478;DHT22;42382;53.210;5.772;2022-12-05T15:54:14;6.00;94.20
56478;DHT22;42382;53.210;5.772;2022-12-05T15:56:49;6.00;94.20
56478;DHT22;42382;53.210;5.772;2022-12-05T15:59:19;6.10;94.30
56478;DHT22;42382;53.210;5.772;2022-12-05T16:01:55;6.10;94.10
56478;DHT22;42382;53.210;5.772;2022-12-05T16:04:27;6.00;94.20
56478;DHT22;42382;53.210;5.772;2022-12-05T16:06:55;6.00;94.20
56478;DHT22;42382;53.210;5.772;2022-12-05T16:09:25;6.00;94.20
56478;DHT22;42382;53.210;5.772;2022-12-05T16:11:59;6.10;94.30
56478;DHT22;42382;53.210;5.772;2022-12-05T16:14:32;6.10;94.20
56478;DHT22;42382;53.210;5.772;2022-12-05T16:16:59;6.00;94.20
56478;DHT22;42382;53.210;5.772;2022-12-05T16:19:28;6.10;94.20
56478;DHT22;42382;53.210;5.772;2022-12-05T16:25:13;6.10;94.20
56478;DHT22;42382;53.210;5.772;2022-12-05T16:27:39;6.10;94.20
56478;DHT22;42382;53.210;5.772;2022-12-05T16:32:40;6.00;94.20
56478;DHT22;42382;53.210;5.772;2022-12-05T16:35:26;6.10;94.30
56478;DHT22;42382;53.210;5.772;2022-12-05T16:38:24;6.00;94.30
56478;DHT22;42382;53.210;5.772;2022-12-05T16:40:56;6.10;94.30
56478;DHT22;42382;53.210;5.772;2022-12-05T16:46:43;6.00;94.30
56478;DHT22;42382;53.210;5.772;2022-12-05T16:51:55;6.00;94.20
56478;DHT22;42382;53.210;5.772;2022-12-05T16:54:22;6.00;94.30
56478;DHT22;42382;53.210;5.772;2022-12-05T16:56:48;6.00;94.20
56478;DHT22;42382;53.210;5.772;2022-12-05T16:59:23;6.10;94.20
56478;DHT22;42382;53.210;5.772;2022-12-05T17:01:49;6.00;94.30
56478;DHT22;42382;53.210;5.772;2022-12-05T17:04:15;6.00;94.20
56478;DHT22;42382;53.210;5.772;2022-12-05T17:06:41;6.10;94.20
56478;DHT22;42382;53.210;5.772;2022-12-05T17:09:06;6.00;94.20
56478;DHT22;42382;53.210;5.772;2022-12-05T17:11:34;6.00;94.20
56478;DHT22;42382;53.210;5.772;2022-12-05T17:14:01;6.00;94.30
56478;DHT22;42382;53.210;5.772;2022-12-05T17:16:27;6.00;94.30
56478;DHT22;42382;53.210;5.772;2022-12-05T17:18:54;6.00;94.30
56478;DHT22;42382;53.210;5.772;2022-12-05T17:21:21;6.00;94.10
56478;DHT22;42382;53.210;5.772;2022-12-05T17:23:49;6.00;94.30
56478;DHT22;42382;53.210;5.772;2022-12-05T17:26:17;6.00;94.20
56478;DHT22;42382;53.210;5.772;2022-12-05T17:28:44;6.00;94.30
56478;DHT22;42382;53.210;5.772;2022-12-05T17:31:12;6.00;94.10
56478;DHT22;42382;53.210;5.772;2022-12-05T17:33:38;5.90;94.20
56478;DHT22;42382;53.210;5.772;2022-12-05T17:36:04;6.00;94.20
56478;DHT22;42382;53.210;5.772;2022-12-05T17:38:30;5.90;94.20
56478;DHT22;42382;53.210;5.772;2022-12-05T17:40:55;5.90;94.20
56478;DHT22;42382;53.210;5.772;2022-12-05T17:43:21;5.90;94.20
56478;DHT22;42382;53.210;5.772;2022-12-05T17:45:47;5.90;94.20
56478;DHT22;42382;53.210;5.772;2022-12-05T17:48:13;5.90;94.20
56478;DHT22;42382;53.210;5.772;2022-12-05T17:50:40;5.90;94.30
56478;DHT22;42382;53.210;5.772;2022-12-05T17:53:17;5.90;94.20
56478;DHT22;42382;53.210;5.772;2022-12-05T17:55:43;5.90;94.40
56478;DHT22;42382;53.210;5.772;2022-12-05T17:58:12;5.90;94.10
56478;DHT22;42382;53.210;5.772;2022-12-05T18:00:40;5.90;94.20
56478;DHT22;42382;53.210;5.772;2022-12-05T18:03:06;5.90;94.20
56478;DHT22;42382;53.210;5.772;2022-12-05T18:05:49;5.80;94.20
56478;DHT22;42382;53.210;5.772;2022-12-05T18:08:16;5.90;94.40
56478;DHT22;42382;53.210;5.772;2022-12-05T18:10:43;5.90;94.10
56478;DHT22;42382;53.210;5.772;2022-12-05T18:13:12;5.90;94.20
56478;DHT22;42382;53.210;5.772;2022-12-05T18:15:39;5.90;94.20
56478;DHT22;42382;53.210;5.772;2022-12-05T18:18:05;5.90;94.20
56478;DHT22;42382;53.210;5.772;2022-12-05T18:20:33;5.90;94.10
56478;DHT22;42382;53.210;5.772;2022-12-05T18:23:02;6.00;94.30
56478;DHT22;42382;53.210;5.772;2022-12-05T18:25:28;6.00;94.10
56478;DHT22;42382;53.210;5.772;2022-12-05T18:27:56;5.90;94.10
56478;DHT22;42382;53.210;5.772;2022-12-05T18:30:22;5.90;94.20
56478;DHT22;42382;53.210;5.772;2022-12-05T18:32:48;6.00;94.20
56478;DHT22;42382;53.210;5.772;2022-12-05T18:35:14;5.90;94.10
56478;DHT22;42382;53.210;5.772;2022-12-05T18:37:39;6.00;94.00
56478;DHT22;42382;53.210;5.772;2022-12-05T18:40:07;5.90;94.10
56478;DHT22;42382;53.210;5.772;2022-12-05T18:42:33;5.90;94.00
56478;DHT22;42382;53.210;5.772;2022-12-05T18:44:59;6.00;94.10
56478;DHT22;42382;53.210;5.772;2022-12-05T18:47:24;6.00;94.10
56478;DHT22;42382;53.210;5.772;2022-12-05T18:49:50;6.00;94.10
56478;DHT22;42382;53.210;5.772;2022-12-05T18:52:16;6.00;94.00
56478;DHT22;42382;53.210;5.772;2022-12-05T18:54:45;6.00;94.00
56478;DHT22;42382;53.210;5.772;2022-12-05T18:57:11;6.10;94.00
56478;DHT22;42382;53.210;5.772;2022-12-05T18:59:37;6.10;94.00
56478;DHT22;42382;53.210;5.772;2022-12-05T19:02:03;6.10;94.00
56478;DHT22;42382;53.210;5.772;2022-12-05T19:04:29;6.10;94.00
56478;DHT22;42382;53.210;5.772;2022-12-05T19:06:59;6.10;94.00
56478;DHT22;42382;53.210;5.772;2022-12-05T19:09:28;6.10;94.00
56478;DHT22;42382;53.210;5.772;2022-12-05T19:11:55;6.10;94.00
56478;DHT22;42382;53.210;5.772;2022-12-05T19:14:23;6.10;93.80
56478;DHT22;42382;53.210;5.772;2022-12-05T19:16:51;6.10;93.90
56478;DHT22;42382;53.210;5.772;2022-12-05T19:19:17;6.10;93.90
56478;DHT22;42382;53.210;5.772;2022-12-05T19:21:43;6.10;93.80
56478;DHT22;42382;53.210;5.772;2022-12-05T19:24:12;6.10;93.80
56478;DHT22;42382;53.210;5.772;2022-12-05T19:26:38;6.10;93.80
56478;DHT22;42382;53.210;5.772;2022-12-05T19:29:05;6.20;93.80
56478;DHT22;42382;53.210;5.772;2022-12-05T19:31:31;6.20;93.70
56478;DHT22;42382;53.210;5.772;2022-12-05T19:34:02;6.10;93.70
56478;DHT22;42382;53.210;5.772;2022-12-05T19:36:37;6.20;93.70
56478;DHT22;42382;53.210;5.772;2022-12-05T19:39:18;6.10;93.70
56478;DHT22;42382;53.210;5.772;2022-12-05T19:41:44;6.10;93.60
56478;DHT22;42382;53.210;5.772;2022-12-05T19:44:10;6.20;93.60
56478;DHT22;42382;53.210;5.772;2022-12-05T19:46:36;6.10;93.50
56478;DHT22;42382;53.210;5.772;2022-12-05T19:49:04;6.10;93.40
56478;DHT22;42382;53.210;5.772;2022-12-05T19:51:32;6.20;93.30
56478;DHT22;42382;53.210;5.772;2022-12-05T19:53:59;6.20;93.30
56478;DHT22;42382;53.210;5.772;2022-12-05T19:56:26;6.10;93.30
56478;DHT22;42382;53.210;5.772;2022-12-05T19:58:54;6.20;93.40
56478;DHT22;42382;53.210;5.772;2022-12-05T20:03:50;6.10;93.10
56478;DHT22;42382;53.210;5.772;2022-12-05T20:06:17;6.20;93.20
56478;DHT22;42382;53.210;5.772;2022-12-05T20:08:43;6.20;93.10
56478;DHT22;42382;53.210;5.772;2022-12-05T20:11:15;6.10;93.00
56478;DHT22;42382;53.210;5.772;2022-12-05T20:13:42;6.20;93.00
56478;DHT22;42382;53.210;5.772;2022-12-05T20:16:09;6.10;93.00
56478;DHT22;42382;53.210;5.772;2022-12-05T20:18:36;6.20;93.00
56478;DHT22;42382;53.210;5.772;2022-12-05T20:21:03;6.20;93.00
56478;DHT22;42382;53.210;5.772;2022-12-05T20:23:30;6.20;93.00
56478;DHT22;42382;53.210;5.772;2022-12-05T20:26:14;6.20;93.00
56478;DHT22;42382;53.210;5.772;2022-12-05T20:28:43;6.20;93.00
56478;DHT22;42382;53.210;5.772;2022-12-05T20:33:39;6.20;92.90
56478;DHT22;42382;53.210;5.772;2022-12-05T20:36:07;6.10;92.90